Etusivu
METAR-TAF:

METAR-TAF

Lentoasemat :

Enfidha

Hammamet, Tunisia

Leveyspiiri: 36-04-34N, Pituuspiiri: 10-26-19E, korkeus merenpinnasta: 6 m

Tämänhetkinen sää

Tämä raportti tehtiin 15 minuuttia sitten, kello 15.30 UTC
Tuuli 17 kn pohjoisesta
Lämpötila 29°C
Kosteus 43%
Ilmanpaine 1012 hPa
Näkyvyys 10 km tai enemmän
Muutamia pilviä 3000 ft:n korkeudessa

METAR: DTNH 121530Z 01017KT 9999 FEW030 29/15 Q1012 NOSIG

Aika: 16:45 (15:45 UTC)

Sääennuste

Tämä raportti tehtiin 4 tuntia ja 45 minuuttia sitten, kello 11.00 UTC
Ennuste voimassa 12. päivästä klo 12 UTC - 13. päivään klo 12 UTC
Tuuli 10 kn koillisesta
Näkyvyys 10 km tai enemmän
Hajanaisia pilviä 3000 ft:n korkeudessa

TAF: DTNH 121100Z 1212/1312 04010KT 9999 SCT030

Säähavainnot ja -ennusteet yli 4000 lentoasemalta (METAR- ja TAF-raportit).

Käytössä olevat sääasemat on merkitty karttaan keltaisilla ja punaisilla pisteillä.

Aseta hiiri pisteen päälle nähdäksesi sääaseman nimen.

Klikkaa sitten nähdäksesi säähavainnot ja -ennusteet.

Kartan vaihtaminen: klikkaa mustalla rastilla varustettuja vihreitä pisteitä, niin voit zoomata sisään; viivalla varustettua vihreää pistettä, niin voit zoomata ulos tai vihreitä nuolia, niin pääset viereisille kartoille.


METAR-TAF: